createdAt,value
2018-03-29T12:55:34.301Z,25.00
2018-03-29T12:56:36.681Z,49.00
2018-03-29T12:57:39.077Z,58.00
2018-03-29T12:58:41.473Z,61.00
2018-03-29T12:59:43.876Z,64.00
2018-03-29T13:00:46.276Z,65.00
2018-03-29T13:01:48.673Z,66.00
2018-03-29T13:02:51.068Z,68.00
2018-03-29T13:03:53.470Z,69.00
2018-03-29T13:04:55.859Z,70.00
2018-03-29T13:05:58.272Z,70.00
2018-03-29T13:07:00.654Z,71.00
2018-03-29T13:08:03.055Z,71.00
2018-03-29T13:09:05.451Z,72.00
2018-03-29T13:10:07.857Z,72.00
2018-03-29T13:11:10.249Z,73.00
2018-03-29T13:12:12.644Z,73.00
2018-03-29T13:13:15.047Z,74.00
2018-03-29T13:14:17.460Z,74.00
2018-03-29T13:15:19.856Z,76.00
2018-03-29T13:16:22.262Z,76.00
2018-03-29T13:17:24.659Z,76.00
2018-03-29T13:18:27.055Z,77.00
2018-03-29T13:19:29.519Z,78.00
2018-03-29T13:20:31.923Z,78.00
2018-03-29T13:21:34.318Z,80.00
2018-03-29T13:22:36.712Z,80.00
2018-03-29T13:23:39.111Z,79.00
2018-03-29T13:24:41.509Z,78.00
2018-03-29T13:25:43.915Z,81.00
2018-03-29T13:26:46.451Z,84.00
2018-03-29T13:27:48.852Z,86.00
2018-03-29T13:28:51.235Z,86.00
2018-03-29T13:29:53.643Z,85.00
2018-03-29T13:30:56.069Z,85.00
2018-03-29T13:31:58.447Z,84.00
2018-03-29T13:33:00.848Z,84.00
2018-03-29T13:34:03.245Z,83.00
2018-03-29T13:35:05.644Z,82.00
2018-03-29T13:36:08.044Z,82.00
2018-03-29T13:37:10.448Z,82.00
2018-03-29T13:38:12.842Z,81.00
2018-03-29T13:39:15.241Z,81.00
2018-03-29T13:40:17.645Z,81.00
2018-03-29T13:41:20.048Z,81.00
2018-03-29T13:42:22.453Z,80.00
2018-03-29T13:43:24.921Z,79.00
2018-03-29T13:44:27.251Z,79.00
2018-03-29T13:45:29.693Z,79.00
2018-03-29T13:46:32.094Z,77.00
2018-03-29T13:47:34.491Z,76.00
2018-03-29T13:48:36.919Z,76.00
2018-03-29T13:49:39.290Z,72.00
2018-03-29T13:50:41.687Z,69.00
2018-03-29T13:51:44.106Z,69.00
2018-03-29T13:52:46.511Z,71.00
2018-03-29T13:53:48.909Z,71.00
2018-03-29T13:54:51.306Z,71.00
2018-03-29T13:55:53.705Z,73.00
2018-03-29T13:56:56.106Z,74.00
2018-03-29T13:57:58.509Z,75.00
2018-03-29T13:59:00.904Z,75.00
2018-03-29T14:00:03.306Z,76.00
2018-03-29T14:01:05.716Z,77.00
2018-03-29T14:02:08.114Z,77.00
2018-03-29T14:03:10.514Z,77.00
2018-03-29T14:04:12.915Z,78.00
2018-03-29T14:05:15.312Z,80.00
2018-03-29T14:06:17.711Z,80.00
2018-03-29T14:07:20.108Z,81.00
2018-03-29T14:08:22.512Z,82.00
2018-03-29T14:09:24.910Z,82.00
2018-03-29T14:10:27.310Z,82.00
2018-03-29T14:11:29.715Z,82.00
2018-03-29T14:12:32.116Z,82.00
2018-03-29T14:13:34.513Z,82.00
2018-03-29T14:14:36.912Z,82.00
2018-03-29T14:15:39.318Z,82.00
2018-03-29T14:16:41.713Z,82.00
2018-03-29T14:17:44.119Z,82.00
2018-03-29T14:18:46.514Z,82.00
2018-03-29T14:19:48.916Z,82.00
2018-03-29T14:20:51.313Z,82.00
2018-03-29T14:21:53.713Z,82.00
2018-03-29T14:22:56.112Z,81.00
2018-03-29T14:23:58.512Z,81.00
2018-03-29T14:25:00.913Z,81.00
2018-03-29T14:26:03.314Z,81.00
2018-03-29T14:27:05.716Z,80.00
2018-03-29T14:28:08.122Z,80.00
2018-03-29T14:29:10.515Z,80.00
2018-03-29T14:30:12.919Z,79.00
2018-03-29T14:31:15.317Z,79.00
2018-03-29T14:32:17.719Z,79.00
2018-03-29T14:33:20.122Z,79.00
2018-03-29T14:34:22.518Z,79.00
2018-03-29T14:35:24.918Z,79.00
2018-03-29T14:36:27.320Z,79.00
2018-03-29T14:37:29.720Z,79.00
2018-03-29T14:38:32.122Z,79.00
2018-03-29T14:39:34.520Z,79.00
2018-03-29T14:40:36.919Z,79.00
2018-03-29T14:41:39.322Z,78.00
2018-03-29T14:42:41.720Z,78.00
2018-03-29T14:43:44.135Z,78.00
2018-03-29T14:44:46.536Z,78.00
2018-03-29T14:45:48.933Z,79.00
2018-03-29T14:46:51.389Z,79.00
2018-03-29T14:47:53.731Z,79.00
2018-03-29T14:48:56.130Z,79.00
2018-03-29T14:49:58.527Z,79.00
2018-03-29T14:51:00.926Z,79.00
2018-03-29T14:52:03.323Z,79.00
2018-03-29T14:53:05.724Z,80.00
2018-03-29T14:54:08.132Z,80.00
2018-03-29T14:55:10.536Z,80.00
2018-03-29T14:56:12.929Z,80.00
2018-03-29T14:57:15.326Z,80.00
2018-03-29T14:58:17.726Z,80.00
2018-03-29T14:59:20.124Z,81.00
2018-03-29T15:00:22.523Z,81.00
2018-03-29T15:01:24.922Z,81.00
2018-03-29T15:02:27.321Z,81.00
2018-03-29T15:03:29.766Z,81.00
2018-03-29T15:04:32.171Z,81.00
